Bantam, Connecticut
Current Conditions -  °F | °C
As of 9:45 AM on Thursday 18 Dec 2014 (Local Time) from KOXC Reporting Station
Overcast Overcast  
Wind Chill: 28°   Ceiling: 5000
Heat Index: 36°   Visibility: 10mi
Dew Point: 21°   Wind: 10mph
Humidity: 56%   Direction: 330°NNW
Pressure: 29.91"   Gusts: 17mph
Location:  41.72°N, 73.24°W
Report Text: KOXC 181445Z 33009G15KT 10SM SCT037 OVC050 02/M06 A2991
Loading
Personal Weather Stations






























Interactive Weather Map New forecast layout! Learn more

10-Day Weather Forecast

Advertisements
Track Severe Weather on mobile